logo
Search for airport 
image banner adimage banner adimage banner ad
image banner ad

MMHUN - Hospital De Traumatologia Y Ortopedia

Located in Puebla, Mexico

ICAO - , IATA -

Data provided by Airmate  

General information

Coordinates: N19°5'12" W98°11'56"
Elevation is 7274 feet MSL.
Magnetic variation is 3° East
View others Airports in Puebla

Operational data

Special qualification required
Current time UTC:
Current local time:
METAR: MMPB 161948Z 18007KT 8SM SCT020 24/09 A3035 RMK 8/100 HZY CB N
TAF: TAF MMPB 161642Z 1618/1718 06010KT P6SM SCT020 TEMPO 1620/1623 BKN020 FM162300 20012KT 5SM RA BKN020CB OVC080 PROB40 1700/1703 2SM TSRA OVC015CB FM170400 00000KT P6SM SCT020 BKN100 FM171200 00000KT P6SM SCT015
View NOTAMs / SUP AIP / TFR affecting this airport [VIEW]
Communications frequencies: [VIEW]

Runways:

Airport contact information

Address: Puebla Mexico

Satellite view of MMHUN